Terminal Aerodrome Forecast
Issued by NWS

Home | Current Version | Previous Version | Text Only | Print | Product List | Glossary On
Versions: 1 2 3 4 5 6 7 8 9 10 11 12 13 14 15
000
FTUS46 KPDT 030248 AAA
TAFBDN
TAF AMD
KBDN 030248Z 0303/0324 31015G25KT P6SM SCT120 BKN200
     FM030900 21008G15KT P6SM VCSH FEW080 SCT100 OVC120
     FM031800 29006KT P6SM SCT100 BKN150
     FM032100 34007KT P6SM VCTS SCT070CB OVC100CB=

USA.gov is the U.S. government's official web portal to all federal, state and local government web resources and services.